sensor_id;sensor_type;location;lat;lon;timestamp;pressure;altitude;pressure_sealevel;temperature;humidity
35489;BME280;21602;55.670;37.578;2023-09-19T00:00:34;99713.63;;;14.16;95.09
35489;BME280;21602;55.670;37.578;2023-09-19T00:03:01;99711.69;;;14.11;95.40
35489;BME280;21602;55.670;37.578;2023-09-19T00:05:29;99712.97;;;14.08;95.47
35489;BME280;21602;55.670;37.578;2023-09-19T00:07:56;99705.66;;;14.04;95.51
35489;BME280;21602;55.670;37.578;2023-09-19T00:10:25;99713.09;;;13.97;95.81
35489;BME280;21602;55.670;37.578;2023-09-19T00:12:56;99710.91;;;13.94;96.12
35489;BME280;21602;55.670;37.578;2023-09-19T00:15:25;99717.81;;;13.90;96.34
35489;BME280;21602;55.670;37.578;2023-09-19T00:17:55;99708.63;;;13.86;96.58
35489;BME280;21602;55.670;37.578;2023-09-19T00:20:21;99717.75;;;13.84;96.67
35489;BME280;21602;55.670;37.578;2023-09-19T00:22:50;99711.81;;;13.82;97.12
35489;BME280;21602;55.670;37.578;2023-09-19T00:25:19;99707.81;;;13.85;97.26
35489;BME280;21602;55.670;37.578;2023-09-19T00:27:46;99711.06;;;13.87;97.44
35489;BME280;21602;55.670;37.578;2023-09-19T00:30:17;99701.97;;;13.88;97.46
35489;BME280;21602;55.670;37.578;2023-09-19T00:32:48;99708.88;;;13.84;97.26
35489;BME280;21602;55.670;37.578;2023-09-19T00:35:15;99706.69;;;13.81;97.64
35489;BME280;21602;55.670;37.578;2023-09-19T00:37:42;99711.22;;;13.80;97.78
35489;BME280;21602;55.670;37.578;2023-09-19T00:40:09;99715.63;;;13.70;98.33
35489;BME280;21602;55.670;37.578;2023-09-19T00:42:48;99723.13;;;13.68;98.36
35489;BME280;21602;55.670;37.578;2023-09-19T00:45:16;99718.50;;;13.63;98.33
35489;BME280;21602;55.670;37.578;2023-09-19T00:47:51;99726.53;;;13.63;98.39
35489;BME280;21602;55.670;37.578;2023-09-19T00:50:19;99727.84;;;13.61;98.16
35489;BME280;21602;55.670;37.578;2023-09-19T00:52:47;99723.78;;;13.58;98.36
35489;BME280;21602;55.670;37.578;2023-09-19T00:55:16;99727.28;;;13.58;98.54
35489;BME280;21602;55.670;37.578;2023-09-19T00:57:46;99727.03;;;13.60;98.41
35489;BME280;21602;55.670;37.578;2023-09-19T01:00:16;99721.66;;;13.60;98.09
35489;BME280;21602;55.670;37.578;2023-09-19T01:02:44;99720.25;;;13.57;97.96
35489;BME280;21602;55.670;37.578;2023-09-19T01:05:13;99710.84;;;13.55;97.84
35489;BME280;21602;55.670;37.578;2023-09-19T01:07:39;99714.50;;;13.49;98.10
35489;BME280;21602;55.670;37.578;2023-09-19T01:10:15;99715.81;;;13.46;98.03
35489;BME280;21602;55.670;37.578;2023-09-19T01:15:21;99702.38;;;13.46;98.26
35489;BME280;21602;55.670;37.578;2023-09-19T01:18:14;99713.38;;;13.45;98.34
35489;BME280;21602;55.670;37.578;2023-09-19T01:29:38;99708.97;;;13.39;98.49
35489;BME280;21602;55.670;37.578;2023-09-19T01:32:06;99711.16;;;13.42;98.48
35489;BME280;21602;55.670;37.578;2023-09-19T01:34:55;99709.88;;;13.44;98.45
35489;BME280;21602;55.670;37.578;2023-09-19T01:37:24;99708.16;;;13.38;98.34
35489;BME280;21602;55.670;37.578;2023-09-19T01:40:03;99703.59;;;13.39;98.49
35489;BME280;21602;55.670;37.578;2023-09-19T01:45:34;99695.47;;;13.33;98.60
35489;BME280;21602;55.670;37.578;2023-09-19T01:48:35;99699.53;;;13.36;98.84
35489;BME280;21602;55.670;37.578;2023-09-19T01:51:07;99695.00;;;13.37;98.75
35489;BME280;21602;55.670;37.578;2023-09-19T01:54:01;99691.75;;;13.35;98.60
35489;BME280;21602;55.670;37.578;2023-09-19T01:56:34;99686.78;;;13.26;98.76
35489;BME280;21602;55.670;37.578;2023-09-19T01:59:06;99686.91;;;13.20;98.58
35489;BME280;21602;55.670;37.578;2023-09-19T02:01:33;99686.00;;;13.14;98.79
35489;BME280;21602;55.670;37.578;2023-09-19T02:04:01;99684.28;;;13.08;99.10
35489;BME280;21602;55.670;37.578;2023-09-19T02:06:30;99677.56;;;13.05;99.07
35489;BME280;21602;55.670;37.578;2023-09-19T02:08:56;99678.03;;;13.02;99.32
35489;BME280;21602;55.670;37.578;2023-09-19T02:11:23;99676.31;;;12.96;98.96
35489;BME280;21602;55.670;37.578;2023-09-19T02:13:50;99670.03;;;12.91;99.07
35489;BME280;21602;55.670;37.578;2023-09-19T02:16:21;99668.09;;;12.86;99.18
35489;BME280;21602;55.670;37.578;2023-09-19T02:18:50;99679.19;;;12.78;99.36
35489;BME280;21602;55.670;37.578;2023-09-19T02:21:17;99671.38;;;12.76;99.48
35489;BME280;21602;55.670;37.578;2023-09-19T02:23:45;99674.06;;;12.76;99.64
35489;BME280;21602;55.670;37.578;2023-09-19T02:26:13;99675.03;;;12.70;99.74
35489;BME280;21602;55.670;37.578;2023-09-19T02:28:41;99663.16;;;12.66;99.91
35489;BME280;21602;55.670;37.578;2023-09-19T02:31:09;99667.38;;;12.62;100.00
35489;BME280;21602;55.670;37.578;2023-09-19T02:33:35;99660.91;;;12.58;100.00
35489;BME280;21602;55.670;37.578;2023-09-19T02:36:03;99659.25;;;12.57;100.00
35489;BME280;21602;55.670;37.578;2023-09-19T02:38:30;99669.13;;;12.56;100.00
35489;BME280;21602;55.670;37.578;2023-09-19T02:40:56;99668.94;;;12.58;100.00
35489;BME280;21602;55.670;37.578;2023-09-19T02:43:22;99669.50;;;12.60;100.00
35489;BME280;21602;55.670;37.578;2023-09-19T02:45:49;99670.03;;;12.62;100.00
35489;BME280;21602;55.670;37.578;2023-09-19T02:48:16;99664.47;;;12.64;100.00
35489;BME280;21602;55.670;37.578;2023-09-19T02:50:44;99673.31;;;12.64;100.00
35489;BME280;21602;55.670;37.578;2023-09-19T02:53:10;99665.75;;;12.61;100.00
35489;BME280;21602;55.670;37.578;2023-09-19T02:55:39;99664.13;;;12.60;100.00
35489;BME280;21602;55.670;37.578;2023-09-19T02:58:09;99672.41;;;12.59;100.00
35489;BME280;21602;55.670;37.578;2023-09-19T03:00:41;99674.28;;;12.58;100.00
35489;BME280;21602;55.670;37.578;2023-09-19T03:03:13;99667.28;;;12.57;100.00
35489;BME280;21602;55.670;37.578;2023-09-19T03:05:41;99669.13;;;12.56;100.00
35489;BME280;21602;55.670;37.578;2023-09-19T03:08:15;99673.22;;;12.59;100.00
35489;BME280;21602;55.670;37.578;2023-09-19T03:10:46;99667.38;;;12.62;100.00
35489;BME280;21602;55.670;37.578;2023-09-19T03:13:13;99669.03;;;12.63;100.00
35489;BME280;21602;55.670;37.578;2023-09-19T03:15:42;99666.34;;;12.63;100.00
35489;BME280;21602;55.670;37.578;2023-09-19T03:18:10;99678.69;;;12.64;100.00
35489;BME280;21602;55.670;37.578;2023-09-19T03:20:37;99670.63;;;12.64;100.00
35489;BME280;21602;55.670;37.578;2023-09-19T03:23:04;99670.63;;;12.64;100.00
35489;BME280;21602;55.670;37.578;2023-09-19T03:25:34;99669.03;;;12.63;100.00
35489;BME280;21602;55.670;37.578;2023-09-19T03:28:02;99666.81;;;12.60;100.00
35489;BME280;21602;55.670;37.578;2023-09-19T03:30:32;99670.75;;;12.57;100.00
35489;BME280;21602;55.670;37.578;2023-09-19T03:33:00;99671.81;;;12.56;100.00
35489;BME280;21602;55.670;37.578;2023-09-19T03:35:26;99673.22;;;12.59;100.00
35489;BME280;21602;55.670;37.578;2023-09-19T03:37:53;99665.28;;;12.64;100.00
35489;BME280;21602;55.670;37.578;2023-09-19T03:40:21;99664.47;;;12.64;100.00
35489;BME280;21602;55.670;37.578;2023-09-19T03:42:49;99670.63;;;12.64;100.00
35489;BME280;21602;55.670;37.578;2023-09-19T03:45:15;99663.16;;;12.66;100.00
35489;BME280;21602;55.670;37.578;2023-09-19T03:47:47;99671.53;;;12.70;100.00
35489;BME280;21602;55.670;37.578;2023-09-19T03:50:15;99657.34;;;12.69;100.00
35489;BME280;21602;55.670;37.578;2023-09-19T03:52:46;99664.31;;;12.70;99.89
35489;BME280;21602;55.670;37.578;2023-09-19T03:55:12;99671.28;;;12.71;100.00
35489;BME280;21602;55.670;37.578;2023-09-19T03:57:40;99670.81;;;12.74;100.00
35489;BME280;21602;55.670;37.578;2023-09-19T04:00:09;99663.69;;;12.80;100.00
35489;BME280;21602;55.670;37.578;2023-09-19T04:02:44;99664.75;;;12.79;99.91
35489;BME280;21602;55.670;37.578;2023-09-19T04:05:11;99661.25;;;12.78;100.00
35489;BME280;21602;55.670;37.578;2023-09-19T04:07:38;99666.13;;;12.81;100.00
35489;BME280;21602;55.670;37.578;2023-09-19T04:10:06;99666.97;;;12.82;99.82
35489;BME280;21602;55.670;37.578;2023-09-19T04:12:34;99666.63;;;12.78;99.98
35489;BME280;21602;55.670;37.578;2023-09-19T04:15:00;99657.53;;;12.79;99.84
35489;BME280;21602;55.670;37.578;2023-09-19T04:17:26;99650.63;;;12.84;99.52
35489;BME280;21602;55.670;37.578;2023-09-19T04:19:52;99651.19;;;12.86;99.53
35489;BME280;21602;55.670;37.578;2023-09-19T04:22:19;99654.69;;;12.86;99.35
35489;BME280;21602;55.670;37.578;2023-09-19T04:24:45;99652.59;;;12.88;99.52
35489;BME280;21602;55.670;37.578;2023-09-19T04:27:11;99642.44;;;12.90;99.06
35489;BME280;21602;55.670;37.578;2023-09-19T04:29:40;99640.44;;;12.97;99.34
35489;BME280;21602;55.670;37.578;2023-09-19T04:32:07;99643.66;;;12.99;99.06
35489;BME280;21602;55.670;37.578;2023-09-19T04:34:45;99641.31;;;13.03;98.89
35489;BME280;21602;55.670;37.578;2023-09-19T04:37:11;99643.28;;;13.07;99.08
35489;BME280;21602;55.670;37.578;2023-09-19T04:39:37;99634.50;;;13.12;98.94
35489;BME280;21602;55.670;37.578;2023-09-19T04:42:03;99627.09;;;13.19;98.37
35489;BME280;21602;55.670;37.578;2023-09-19T04:44:29;99628.06;;;13.25;98.11
35489;BME280;21602;55.670;37.578;2023-09-19T04:46:55;99630.47;;;13.26;97.87
35489;BME280;21602;55.670;37.578;2023-09-19T04:49:21;99634.53;;;13.29;97.76
35489;BME280;21602;55.670;37.578;2023-09-19T04:51:47;99639.34;;;13.27;97.19
35489;BME280;21602;55.670;37.578;2023-09-19T04:54:13;99635.38;;;13.29;98.08
35489;BME280;21602;55.670;37.578;2023-09-19T04:56:41;99636.19;;;13.30;97.38
35489;BME280;21602;55.670;37.578;2023-09-19T04:59:08;99635.13;;;13.31;97.16
35489;BME280;21602;55.670;37.578;2023-09-19T05:01:36;99632.84;;;13.40;96.77
35489;BME280;21602;55.670;37.578;2023-09-19T05:04:02;99636.16;;;13.47;96.55
35489;BME280;21602;55.670;37.578;2023-09-19T05:06:30;99623.31;;;13.49;96.11
35489;BME280;21602;55.670;37.578;2023-09-19T05:08:57;99624.94;;;13.50;96.00
35489;BME280;21602;55.670;37.578;2023-09-19T05:11:23;99625.56;;;13.57;96.26
35489;BME280;21602;55.670;37.578;2023-09-19T05:13:50;99627.50;;;13.62;95.45
35489;BME280;21602;55.670;37.578;2023-09-19T05:16:16;99619.88;;;13.70;95.15
35489;BME280;21602;55.670;37.578;2023-09-19T05:18:50;99622.13;;;13.78;94.90
35489;BME280;21602;55.670;37.578;2023-09-19T05:21:16;99620.06;;;13.86;94.45
35489;BME280;21602;55.670;37.578;2023-09-19T05:23:45;99616.63;;;13.90;93.94
35489;BME280;21602;55.670;37.578;2023-09-19T05:26:11;99618.84;;;13.93;94.08
35489;BME280;21602;55.670;37.578;2023-09-19T05:28:41;99616.97;;;13.94;93.86
35489;BME280;21602;55.670;37.578;2023-09-19T05:31:10;99617.53;;;13.96;93.82
35489;BME280;21602;55.670;37.578;2023-09-19T05:33:37;99616.22;;;13.98;93.11
35489;BME280;21602;55.670;37.578;2023-09-19T05:36:03;99618.16;;;14.03;93.11
35489;BME280;21602;55.670;37.578;2023-09-19T05:38:29;99617.94;;;14.09;93.31
35489;BME280;21602;55.670;37.578;2023-09-19T05:40:55;99614.28;;;14.16;93.03
35489;BME280;21602;55.670;37.578;2023-09-19T05:43:21;99608.66;;;14.17;92.95
35489;BME280;21602;55.670;37.578;2023-09-19T05:45:50;99615.31;;;14.15;91.69
35489;BME280;21602;55.670;37.578;2023-09-19T05:48:17;99609.66;;;14.11;91.66
35489;BME280;21602;55.670;37.578;2023-09-19T05:50:44;99616.91;;;14.11;91.86
35489;BME280;21602;55.670;37.578;2023-09-19T05:53:12;99611.84;;;14.14;92.08
35489;BME280;21602;55.670;37.578;2023-09-19T05:55:42;99604.03;;;14.13;91.50
35489;BME280;21602;55.670;37.578;2023-09-19T05:58:11;99610.28;;;14.18;91.16
35489;BME280;21602;55.670;37.578;2023-09-19T06:00:40;99604.47;;;14.26;91.06
35489;BME280;21602;55.670;37.578;2023-09-19T06:03:10;99610.22;;;14.35;91.36
35489;BME280;21602;55.670;37.578;2023-09-19T06:05:39;99615.38;;;14.42;90.80
35489;BME280;21602;55.670;37.578;2023-09-19T06:08:08;99606.91;;;14.50;91.12
35489;BME280;21602;55.670;37.578;2023-09-19T06:10:37;99607.78;;;14.55;90.39
35489;BME280;21602;55.670;37.578;2023-09-19T06:13:06;99605.41;;;14.59;90.01
35489;BME280;21602;55.670;37.578;2023-09-19T06:15:35;99601.13;;;14.63;89.84
35489;BME280;21602;55.670;37.578;2023-09-19T06:18:02;99602.81;;;14.69;89.61
35489;BME280;21602;55.670;37.578;2023-09-19T06:20:30;99602.09;;;14.79;89.73
35489;BME280;21602;55.670;37.578;2023-09-19T06:22:57;99600.28;;;14.90;89.62
35489;BME280;21602;55.670;37.578;2023-09-19T06:25:25;99597.91;;;14.93;88.97
35489;BME280;21602;55.670;37.578;2023-09-19T06:27:52;99601.75;;;15.02;88.73
35489;BME280;21602;55.670;37.578;2023-09-19T06:30:24;99598.84;;;15.09;88.38
35489;BME280;21602;55.670;37.578;2023-09-19T06:32:58;99602.19;;;15.21;88.39
35489;BME280;21602;55.670;37.578;2023-09-19T06:35:25;99595.25;;;15.30;88.28
35489;BME280;21602;55.670;37.578;2023-09-19T06:37:52;99589.94;;;15.41;87.83
35489;BME280;21602;55.670;37.578;2023-09-19T06:40:18;99583.50;;;15.47;87.28
35489;BME280;21602;55.670;37.578;2023-09-19T06:42:53;99583.06;;;15.60;87.12
35489;BME280;21602;55.670;37.578;2023-09-19T06:45:19;99591.00;;;15.77;87.19
35489;BME280;21602;55.670;37.578;2023-09-19T06:47:51;99597.84;;;16.05;87.34
35489;BME280;21602;55.670;37.578;2023-09-19T06:50:21;99611.41;;;16.35;88.42
35489;BME280;21602;55.670;37.578;2023-09-19T06:52:56;99604.47;;;16.65;87.78
35489;BME280;21602;55.670;37.578;2023-09-19T06:55:25;99594.59;;;16.86;84.67
35489;BME280;21602;55.670;37.578;2023-09-19T06:57:56;99597.56;;;17.05;84.48
35489;BME280;21602;55.670;37.578;2023-09-19T07:00:22;99598.63;;;17.19;84.21
35489;BME280;21602;55.670;37.578;2023-09-19T07:03:02;99589.41;;;17.40;82.62
35489;BME280;21602;55.670;37.578;2023-09-19T07:05:36;99588.06;;;17.53;83.27
35489;BME280;21602;55.670;37.578;2023-09-19T07:08:06;99594.75;;;17.61;81.36
35489;BME280;21602;55.670;37.578;2023-09-19T07:10:33;99594.75;;;17.71;81.65
35489;BME280;21602;55.670;37.578;2023-09-19T07:13:03;99597.47;;;17.76;80.57
35489;BME280;21602;55.670;37.578;2023-09-19T07:15:32;99595.56;;;17.82;80.32
35489;BME280;21602;55.670;37.578;2023-09-19T07:18:04;99590.69;;;17.84;80.21
35489;BME280;21602;55.670;37.578;2023-09-19T07:20:31;99595.59;;;17.77;79.08
35489;BME280;21602;55.670;37.578;2023-09-19T07:22:59;99587.75;;;17.75;79.35
35489;BME280;21602;55.670;37.578;2023-09-19T07:25:26;99583.97;;;17.81;79.00
35489;BME280;21602;55.670;37.578;2023-09-19T07:27:55;99592.59;;;17.83;78.14
35489;BME280;21602;55.670;37.578;2023-09-19T07:30:20;99590.19;;;17.77;77.30
35489;BME280;21602;55.670;37.578;2023-09-19T07:32:47;99583.91;;;17.91;78.63
35489;BME280;21602;55.670;37.578;2023-09-19T07:35:14;99596.81;;;18.10;77.49
35489;BME280;21602;55.670;37.578;2023-09-19T07:37:41;99598.91;;;18.28;77.19
35489;BME280;21602;55.670;37.578;2023-09-19T07:40:07;99606.38;;;18.41;76.21
35489;BME280;21602;55.670;37.578;2023-09-19T07:42:34;99597.69;;;18.50;75.62
35489;BME280;21602;55.670;37.578;2023-09-19T07:45:01;99596.00;;;18.59;75.70
35489;BME280;21602;55.670;37.578;2023-09-19T07:47:29;99597.88;;;18.63;75.32
35489;BME280;21602;55.670;37.578;2023-09-19T07:49:56;99593.84;;;18.56;74.96
35489;BME280;21602;55.670;37.578;2023-09-19T07:52:22;99583.66;;;18.48;74.75
35489;BME280;21602;55.670;37.578;2023-09-19T07:54:48;99579.31;;;18.47;74.73
35489;BME280;21602;55.670;37.578;2023-09-19T07:57:16;99576.56;;;18.57;74.45
35489;BME280;21602;55.670;37.578;2023-09-19T07:59:42;99573.50;;;18.74;74.44
35489;BME280;21602;55.670;37.578;2023-09-19T08:02:09;99573.09;;;18.90;73.52
35489;BME280;21602;55.670;37.578;2023-09-19T08:04:50;99564.34;;;19.04;73.25
35489;BME280;21602;55.670;37.578;2023-09-19T08:07:18;99562.41;;;19.09;72.33
35489;BME280;21602;55.670;37.578;2023-09-19T08:09:44;99555.63;;;19.07;71.84
35489;BME280;21602;55.670;37.578;2023-09-19T08:12:12;99555.69;;;19.02;72.28
35489;BME280;21602;55.670;37.578;2023-09-19T08:14:38;99556.78;;;19.01;72.01
35489;BME280;21602;55.670;37.578;2023-09-19T08:17:10;99551.03;;;19.07;71.67
35489;BME280;21602;55.670;37.578;2023-09-19T08:19:36;99552.22;;;19.25;71.47
35489;BME280;21602;55.670;37.578;2023-09-19T08:22:02;99555.56;;;19.41;71.07
35489;BME280;21602;55.670;37.578;2023-09-19T08:24:29;99555.72;;;19.55;70.36
35489;BME280;21602;55.670;37.578;2023-09-19T08:26:58;99553.50;;;19.62;70.00
35489;BME280;21602;55.670;37.578;2023-09-19T08:29:25;99557.31;;;19.61;69.53
35489;BME280;21602;55.670;37.578;2023-09-19T08:31:54;99550.81;;;19.62;69.28
35489;BME280;21602;55.670;37.578;2023-09-19T08:34:26;99545.66;;;19.60;68.84
35489;BME280;21602;55.670;37.578;2023-09-19T08:36:53;99539.97;;;19.62;69.20
35489;BME280;21602;55.670;37.578;2023-09-19T08:39:23;99540.25;;;19.55;69.51
35489;BME280;21602;55.670;37.578;2023-09-19T08:41:49;99536.81;;;19.50;70.18
35489;BME280;21602;55.670;37.578;2023-09-19T08:44:15;99533.53;;;19.53;70.98
35489;BME280;21602;55.670;37.578;2023-09-19T08:46:43;99535.66;;;19.56;69.86
35489;BME280;21602;55.670;37.578;2023-09-19T08:52:25;99532.34;;;19.64;70.38
35489;BME280;21602;55.670;37.578;2023-09-19T08:54:57;99529.75;;;19.78;69.87
35489;BME280;21602;55.670;37.578;2023-09-19T08:57:25;99527.84;;;19.78;69.70
35489;BME280;21602;55.670;37.578;2023-09-19T08:59:56;99517.97;;;19.87;69.61
35489;BME280;21602;55.670;37.578;2023-09-19T09:02:23;99522.28;;;19.88;68.78
35489;BME280;21602;55.670;37.578;2023-09-19T09:04:50;99513.09;;;19.89;69.16
35489;BME280;21602;55.670;37.578;2023-09-19T09:07:17;99515.72;;;19.94;68.78
35489;BME280;21602;55.670;37.578;2023-09-19T09:09:45;99521.66;;;19.97;68.66
35489;BME280;21602;55.670;37.578;2023-09-19T09:12:13;99516.72;;;19.99;68.69
35489;BME280;21602;55.670;37.578;2023-09-19T09:14:45;99518.88;;;20.02;68.22
35489;BME280;21602;55.670;37.578;2023-09-19T09:17:19;99516.16;;;20.02;68.42
35489;BME280;21602;55.670;37.578;2023-09-19T09:19:46;99518.81;;;20.07;68.22
35489;BME280;21602;55.670;37.578;2023-09-19T09:22:16;99524.06;;;20.17;68.03
35489;BME280;21602;55.670;37.578;2023-09-19T09:24:58;99535.06;;;20.26;67.38
35489;BME280;21602;55.670;37.578;2023-09-19T09:27:24;99526.00;;;20.35;67.48
35489;BME280;21602;55.670;37.578;2023-09-19T09:29:51;99523.69;;;20.48;67.51
35489;BME280;21602;55.670;37.578;2023-09-19T09:32:25;99521.78;;;20.48;67.17
35489;BME280;21602;55.670;37.578;2023-09-19T09:34:56;99512.38;;;20.59;66.75
35489;BME280;21602;55.670;37.578;2023-09-19T09:37:22;99514.78;;;20.80;66.77
35489;BME280;21602;55.670;37.578;2023-09-19T09:40:02;99507.78;;;21.06;65.97
35489;BME280;21602;55.670;37.578;2023-09-19T09:42:40;99499.25;;;21.27;66.11
35489;BME280;21602;55.670;37.578;2023-09-19T09:45:21;99499.41;;;21.35;65.15
35489;BME280;21602;55.670;37.578;2023-09-19T09:48:01;99498.19;;;21.28;64.88
35489;BME280;21602;55.670;37.578;2023-09-19T09:50:46;99502.81;;;21.27;64.51
35489;BME280;21602;55.670;37.578;2023-09-19T09:53:27;99502.19;;;21.30;64.75
35489;BME280;21602;55.670;37.578;2023-09-19T09:56:00;99498.91;;;21.33;64.58
35489;BME280;21602;55.670;37.578;2023-09-19T09:58:26;99494.94;;;21.26;64.73
35489;BME280;21602;55.670;37.578;2023-09-19T10:00:58;99494.94;;;21.26;64.80
35489;BME280;21602;55.670;37.578;2023-09-19T10:03:38;99499.78;;;21.29;65.00
35489;BME280;21602;55.670;37.578;2023-09-19T10:06:10;99487.91;;;21.25;64.55
35489;BME280;21602;55.670;37.578;2023-09-19T10:09:03;99488.13;;;21.28;64.87
35489;BME280;21602;55.670;37.578;2023-09-19T10:11:47;99483.63;;;21.37;65.14
35489;BME280;21602;55.670;37.578;2023-09-19T10:14:24;99490.78;;;21.47;64.65
35489;BME280;21602;55.670;37.578;2023-09-19T10:16:53;99489.56;;;21.53;64.73
35489;BME280;21602;55.670;37.578;2023-09-19T10:19:58;99486.34;;;21.65;64.24
35489;BME280;21602;55.670;37.578;2023-09-19T10:22:28;99482.41;;;21.71;64.70
35489;BME280;21602;55.670;37.578;2023-09-19T10:24:57;99476.53;;;21.78;63.76
35489;BME280;21602;55.670;37.578;2023-09-19T10:27:29;99467.00;;;21.80;63.40
35489;BME280;21602;55.670;37.578;2023-09-19T10:29:57;99463.97;;;21.82;63.33
35489;BME280;21602;55.670;37.578;2023-09-19T10:32:25;99460.81;;;21.88;63.20
35489;BME280;21602;55.670;37.578;2023-09-19T10:34:53;99459.09;;;21.92;63.46
35489;BME280;21602;55.670;37.578;2023-09-19T10:37:24;99458.81;;;21.94;63.44
35489;BME280;21602;55.670;37.578;2023-09-19T10:39:54;99455.38;;;21.88;63.22
35489;BME280;21602;55.670;37.578;2023-09-19T10:42:23;99444.94;;;21.82;63.48
35489;BME280;21602;55.670;37.578;2023-09-19T10:44:54;99445.38;;;21.75;64.01
35489;BME280;21602;55.670;37.578;2023-09-19T10:47:26;99447.44;;;21.78;63.67
35489;BME280;21602;55.670;37.578;2023-09-19T10:49:52;99447.34;;;21.83;63.98
35489;BME280;21602;55.670;37.578;2023-09-19T10:52:23;99447.66;;;21.82;63.80
35489;BME280;21602;55.670;37.578;2023-09-19T10:54:52;99450.06;;;21.83;63.96
35489;BME280;21602;55.670;37.578;2023-09-19T10:57:25;99447.53;;;21.87;64.38
35489;BME280;21602;55.670;37.578;2023-09-19T11:00:04;99442.78;;;21.92;64.04
35489;BME280;21602;55.670;37.578;2023-09-19T11:03:16;99443.31;;;21.94;63.90
35489;BME280;21602;55.670;37.578;2023-09-19T11:06:11;99442.91;;;21.87;63.79
35489;BME280;21602;55.670;37.578;2023-09-19T11:08:59;99448.09;;;21.75;64.49
35489;BME280;21602;55.670;37.578;2023-09-19T11:11:42;99439.72;;;21.71;64.69
35489;BME280;21602;55.670;37.578;2023-09-19T11:30:53;99431.41;;;22.04;64.61
35489;BME280;21602;55.670;37.578;2023-09-19T11:33:24;99429.06;;;22.11;64.99
35489;BME280;21602;55.670;37.578;2023-09-19T11:36:15;99430.47;;;22.22;65.21
35489;BME280;21602;55.670;37.578;2023-09-19T11:43:52;99421.78;;;22.43;64.36
35489;BME280;21602;55.670;37.578;2023-09-19T11:46:20;99421.19;;;22.46;64.33
35489;BME280;21602;55.670;37.578;2023-09-19T11:48:50;99414.81;;;22.51;64.26
35489;BME280;21602;55.670;37.578;2023-09-19T11:51:17;99410.31;;;22.55;63.97
35489;BME280;21602;55.670;37.578;2023-09-19T11:53:46;99408.31;;;22.60;64.26
35489;BME280;21602;55.670;37.578;2023-09-19T11:56:18;99409.44;;;22.68;64.20
35489;BME280;21602;55.670;37.578;2023-09-19T11:58:44;99412.22;;;22.77;63.91
35489;BME280;21602;55.670;37.578;2023-09-19T12:01:21;99394.81;;;22.86;63.72
35489;BME280;21602;55.670;37.578;2023-09-19T12:03:49;99406.09;;;22.93;63.66
35489;BME280;21602;55.670;37.578;2023-09-19T12:06:18;99396.00;;;22.94;63.32
35489;BME280;21602;55.670;37.578;2023-09-19T12:08:44;99387.34;;;22.92;63.37
35489;BME280;21602;55.670;37.578;2023-09-19T12:11:13;99385.06;;;22.85;63.46
35489;BME280;21602;55.670;37.578;2023-09-19T12:13:45;99384.13;;;22.90;63.96
35489;BME280;21602;55.670;37.578;2023-09-19T12:16:17;99384.47;;;22.97;63.31
35489;BME280;21602;55.670;37.578;2023-09-19T12:18:46;99386.25;;;23.02;63.51
35489;BME280;21602;55.670;37.578;2023-09-19T12:21:29;99381.31;;;23.04;63.84
35489;BME280;21602;55.670;37.578;2023-09-19T12:24:07;99376.34;;;23.06;63.65
35489;BME280;21602;55.670;37.578;2023-09-19T12:26:43;99373.00;;;23.09;63.36
35489;BME280;21602;55.670;37.578;2023-09-19T12:29:15;99370.28;;;23.09;63.44
35489;BME280;21602;55.670;37.578;2023-09-19T12:31:57;99366.78;;;23.17;62.98
35489;BME280;21602;55.670;37.578;2023-09-19T12:34:28;99367.09;;;23.24;63.03
35489;BME280;21602;55.670;37.578;2023-09-19T12:39:45;99362.13;;;23.26;62.08
35489;BME280;21602;55.670;37.578;2023-09-19T12:42:23;99356.84;;;23.21;62.28
35489;BME280;21602;55.670;37.578;2023-09-19T12:44:53;99352.84;;;23.18;62.84
35489;BME280;21602;55.670;37.578;2023-09-19T12:47:24;99347.72;;;23.25;62.71
35489;BME280;21602;55.670;37.578;2023-09-19T12:50:13;99351.44;;;23.38;62.49
35489;BME280;21602;55.670;37.578;2023-09-19T12:52:52;99346.63;;;23.44;62.04
35489;BME280;21602;55.670;37.578;2023-09-19T12:55:30;99348.72;;;23.47;61.75
35489;BME280;21602;55.670;37.578;2023-09-19T12:58:16;99350.94;;;23.45;62.06
35489;BME280;21602;55.670;37.578;2023-09-19T13:00:45;99352.72;;;23.49;62.01
35489;BME280;21602;55.670;37.578;2023-09-19T13:03:25;99344.38;;;23.55;61.70
35489;BME280;21602;55.670;37.578;2023-09-19T13:05:55;99337.50;;;23.57;61.61
35489;BME280;21602;55.670;37.578;2023-09-19T13:08:30;99334.00;;;23.57;61.66
35489;BME280;21602;55.670;37.578;2023-09-19T13:11:11;99336.88;;;23.51;61.54
35489;BME280;21602;55.670;37.578;2023-09-19T13:16:34;99334.47;;;23.41;61.70
35489;BME280;21602;55.670;37.578;2023-09-19T13:19:00;99336.84;;;23.43;61.65
35489;BME280;21602;55.670;37.578;2023-09-19T13:21:33;99323.06;;;23.48;61.72
35489;BME280;21602;55.670;37.578;2023-09-19T13:24:23;99330.75;;;23.55;61.87
35489;BME280;21602;55.670;37.578;2023-09-19T13:26:51;99330.63;;;23.60;61.96
35489;BME280;21602;55.670;37.578;2023-09-19T13:29:17;99333.50;;;23.63;61.63
35489;BME280;21602;55.670;37.578;2023-09-19T13:31:48;99331.91;;;23.62;61.66
35489;BME280;21602;55.670;37.578;2023-09-19T13:34:15;99329.66;;;23.56;62.05
35489;BME280;21602;55.670;37.578;2023-09-19T13:36:44;99327.72;;;23.47;62.37
35489;BME280;21602;55.670;37.578;2023-09-19T13:39:10;99327.56;;;23.44;62.30
35489;BME280;21602;55.670;37.578;2023-09-19T13:41:39;99317.63;;;23.48;62.78
35489;BME280;21602;55.670;37.578;2023-09-19T13:44:06;99323.88;;;23.48;62.56
35489;BME280;21602;55.670;37.578;2023-09-19T13:46:31;99314.25;;;23.42;62.69
35489;BME280;21602;55.670;37.578;2023-09-19T13:49:01;99311.19;;;23.35;63.03